createdAt,value
2018-06-19T00:00:43.196Z,96.58
2018-06-19T00:03:13.009Z,95.52
2018-06-19T00:05:42.410Z,95.14
2018-06-19T00:08:12.497Z,95.18
2018-06-19T00:25:05.671Z,94.23
2018-06-19T00:36:53.790Z,93.90
2018-06-19T00:45:27.323Z,93.25
2018-06-19T00:47:57.904Z,92.92
2018-06-19T00:50:27.013Z,92.84
2018-06-19T00:52:58.965Z,92.21
2018-06-19T00:55:32.309Z,92.36
2018-06-19T01:00:47.295Z,91.42
2018-06-19T01:03:18.376Z,90.96
2018-06-19T01:24:04.458Z,86.83
2018-06-19T01:26:35.783Z,86.90
2018-06-19T01:29:08.335Z,86.96
2018-06-19T01:31:37.677Z,86.72
2018-06-19T01:34:06.911Z,86.94
2018-06-19T01:36:37.187Z,87.32
2018-06-19T01:39:11.340Z,88.07
2018-06-19T01:41:46.561Z,87.58
2018-06-19T01:44:19.138Z,87.09
2018-06-19T01:46:48.721Z,86.57
2018-06-19T01:49:17.747Z,86.89
2018-06-19T01:51:47.014Z,86.52
2018-06-19T01:54:16.059Z,85.97
2018-06-19T01:56:45.190Z,85.97
2018-06-19T01:59:14.249Z,85.66
2018-06-19T02:01:43.471Z,85.56
2018-06-19T02:04:12.494Z,85.96
2018-06-19T02:06:41.658Z,85.63
2018-06-19T02:09:12.115Z,85.60
2018-06-19T02:11:41.285Z,85.37
2018-06-19T02:14:10.528Z,85.31
2018-06-19T02:16:40.172Z,85.41
2018-06-19T02:19:09.427Z,86.03
2018-06-19T02:21:38.711Z,86.07
2018-06-19T02:24:07.975Z,86.06
2018-06-19T02:26:37.171Z,86.43
2018-06-19T02:29:06.391Z,85.85
2018-06-19T02:31:36.361Z,86.42
2018-06-19T02:54:22.244Z,89.54
2018-06-19T02:59:43.564Z,89.20
2018-06-19T03:02:16.879Z,88.93
2018-06-19T03:04:46.118Z,88.63
2018-06-19T03:07:15.345Z,87.94
2018-06-19T03:09:44.447Z,87.59
2018-06-19T03:12:13.446Z,87.12
2018-06-19T03:14:42.642Z,86.82
2018-06-19T03:17:12.008Z,86.08
2018-06-19T03:19:41.060Z,85.38
2018-06-19T03:22:11.036Z,85.23
2018-06-19T03:24:40.195Z,83.38
2018-06-19T03:27:09.232Z,82.37
2018-06-19T03:29:38.334Z,81.86
2018-06-19T03:32:07.958Z,80.83
2018-06-19T03:34:37.364Z,79.47
2018-06-19T03:37:09.933Z,79.08
2018-06-19T03:39:41.625Z,77.87
2018-06-19T03:42:11.182Z,76.55
2018-06-19T03:44:41.724Z,76.64
2018-06-19T03:47:34.761Z,76.04
2018-06-19T03:50:04.228Z,76.72
2018-06-19T03:52:33.549Z,75.29
2018-06-19T03:55:12.496Z,75.17
2018-06-19T03:57:43.505Z,72.08
2018-06-19T04:00:15.952Z,71.37
2018-06-19T04:02:46.936Z,71.43
2018-06-19T04:08:09.025Z,69.97
2018-06-19T04:11:14.185Z,69.52
2018-06-19T04:14:53.452Z,69.25
2018-06-19T04:17:29.668Z,68.03
2018-06-19T04:19:59.555Z,67.60
2018-06-19T04:22:34.606Z,67.36
2018-06-19T04:25:03.776Z,66.60
2018-06-19T04:27:33.501Z,66.33
2018-06-19T04:30:03.183Z,66.61
2018-06-19T04:32:33.226Z,66.73
2018-06-19T04:35:03.696Z,65.06
2018-06-19T04:37:33.089Z,64.96
2018-06-19T04:40:05.991Z,64.36
2018-06-19T04:42:35.310Z,63.30
2018-06-19T04:45:04.421Z,61.83
2018-06-19T04:47:37.654Z,61.05
2018-06-19T04:50:06.777Z,60.20
2018-06-19T04:52:35.834Z,60.14
2018-06-19T04:55:04.976Z,59.99
2018-06-19T04:57:34.146Z,59.06
2018-06-19T05:00:03.295Z,58.68
2018-06-19T05:02:32.488Z,59.29
2018-06-19T05:05:01.573Z,58.43
2018-06-19T05:07:30.633Z,57.79
2018-06-19T05:10:00.000Z,57.51
2018-06-19T05:12:28.971Z,56.74
2018-06-19T05:14:58.095Z,56.04
2018-06-19T05:17:27.709Z,55.49
2018-06-19T05:19:56.673Z,55.38
2018-06-19T05:22:25.752Z,54.27
2018-06-19T05:24:54.863Z,53.51
2018-06-19T05:27:24.056Z,54.45
2018-06-19T05:29:53.039Z,54.00
2018-06-19T05:32:23.027Z,53.88
2018-06-19T05:34:52.157Z,53.06
2018-06-19T05:37:21.757Z,52.32
2018-06-19T05:39:51.893Z,51.31
2018-06-19T05:42:21.124Z,49.58
2018-06-19T05:44:50.182Z,49.36
2018-06-19T05:47:19.758Z,50.55
2018-06-19T05:49:48.816Z,50.64
2018-06-19T05:52:17.945Z,49.03
2018-06-19T05:54:47.653Z,49.60
2018-06-19T05:57:16.585Z,48.96
2018-06-19T05:59:45.567Z,48.56
2018-06-19T06:02:14.584Z,48.91
2018-06-19T06:04:43.436Z,48.86
2018-06-19T06:07:12.741Z,47.67
2018-06-19T06:09:41.703Z,46.51
2018-06-19T06:12:12.556Z,45.49
2018-06-19T06:14:43.106Z,45.60
2018-06-19T06:17:12.572Z,46.10
2018-06-19T06:19:41.614Z,47.27
2018-06-19T06:22:11.270Z,46.90
2018-06-19T06:24:40.253Z,45.73
2018-06-19T06:27:09.341Z,47.37
2018-06-19T06:29:38.824Z,47.72
2018-06-19T06:32:07.874Z,49.15
2018-06-19T06:34:36.836Z,51.74
2018-06-19T06:37:05.935Z,52.14
2018-06-19T06:39:34.958Z,53.76
2018-06-19T06:42:03.955Z,54.47
2018-06-19T06:44:33.426Z,54.72
2018-06-19T06:47:02.474Z,54.38
2018-06-19T06:49:31.553Z,55.26
2018-06-19T06:52:01.049Z,54.66
2018-06-19T06:54:30.016Z,55.18
2018-06-19T06:57:01.672Z,56.24
2018-06-19T06:59:32.411Z,55.21
2018-06-19T07:02:02.678Z,54.49
2018-06-19T07:04:31.697Z,54.06
2018-06-19T07:07:00.635Z,53.30
2018-06-19T07:09:30.100Z,54.13
2018-06-19T07:14:48.888Z,53.30
2018-06-19T07:17:18.115Z,52.72
2018-06-19T07:19:48.921Z,51.99
2018-06-19T07:22:26.143Z,50.82
2018-06-19T07:24:57.148Z,49.42
2018-06-19T07:27:28.225Z,49.52
2018-06-19T07:29:57.567Z,51.42
2018-06-19T07:32:28.735Z,51.29
2018-06-19T07:35:00.233Z,51.24
2018-06-19T09:28:37.129Z,39.20
2018-06-19T09:31:07.482Z,39.46
2018-06-19T09:33:36.449Z,37.86
2018-06-19T09:36:06.061Z,40.10
2018-06-19T09:38:35.124Z,39.87
2018-06-19T09:41:06.011Z,38.76
2018-06-19T09:43:36.915Z,39.22
2018-06-19T09:46:08.616Z,39.27
2018-06-19T09:48:37.622Z,37.30
2018-06-19T09:51:06.602Z,36.04
2018-06-19T09:53:36.007Z,39.07
2018-06-19T09:58:39.511Z,37.26
2018-06-19T10:01:08.476Z,38.91
2018-06-19T10:03:37.948Z,38.42
2018-06-19T10:11:14.192Z,38.91
2018-06-19T10:13:43.247Z,39.15
2018-06-19T10:16:14.571Z,39.00
2018-06-19T10:18:44.106Z,37.53
2018-06-19T10:23:46.770Z,37.22
2018-06-19T10:26:16.170Z,38.23
2018-06-19T10:28:45.138Z,37.56
2018-06-19T10:31:15.329Z,39.10
2018-06-19T10:36:18.216Z,37.97
2018-06-19T10:38:47.157Z,38.04
2018-06-19T10:43:50.420Z,37.97
2018-06-19T10:48:52.901Z,36.21
2018-06-19T10:51:21.970Z,37.09
2018-06-19T10:56:25.230Z,38.05
2018-06-19T10:58:54.183Z,36.98
2018-06-19T11:01:23.066Z,36.88
2018-06-19T11:03:53.030Z,36.74
2018-06-19T11:06:22.257Z,36.71
2018-06-19T11:13:58.650Z,35.38
2018-06-19T11:16:31.862Z,34.59
2018-06-19T11:24:13.356Z,37.12
2018-06-19T11:26:42.443Z,36.74
2018-06-19T11:34:20.917Z,35.42
2018-06-19T11:39:23.563Z,33.75
2018-06-19T11:41:52.744Z,33.55
2018-06-19T11:46:55.375Z,31.75
2018-06-19T11:49:24.421Z,31.27
2018-06-19T11:51:53.341Z,31.85
2018-06-19T11:54:22.653Z,30.80
2018-06-19T11:56:51.601Z,32.72
2018-06-19T12:04:27.824Z,33.98
2018-06-19T12:06:56.961Z,32.39
2018-06-19T12:09:26.037Z,32.67
2018-06-19T12:17:01.301Z,31.74
2018-06-19T12:19:30.728Z,30.58
2018-06-19T12:21:59.630Z,30.52
2018-06-19T12:24:28.806Z,30.18
2018-06-19T12:26:58.109Z,30.07
2018-06-19T12:29:27.271Z,29.78
2018-06-19T12:31:56.316Z,30.62
2018-06-19T12:34:25.901Z,30.32
2018-06-19T12:36:54.990Z,30.51
2018-06-19T12:39:24.120Z,31.85
2018-06-19T12:41:53.712Z,30.56
2018-06-19T12:44:22.708Z,30.39
2018-06-19T12:46:52.037Z,31.15
2018-06-19T12:49:33.114Z,30.67
2018-06-19T12:52:12.951Z,27.97
2018-06-19T12:55:22.902Z,29.66
2018-06-19T12:57:52.058Z,30.07
2018-06-19T13:00:21.127Z,29.00
2018-06-19T13:03:01.649Z,29.17
2018-06-19T13:05:41.669Z,29.14
2018-06-19T13:08:12.964Z,30.46
2018-06-19T13:10:42.025Z,29.32
2018-06-19T13:13:25.295Z,30.27
2018-06-19T13:16:01.124Z,30.28
2018-06-19T13:18:42.096Z,30.04
2018-06-19T13:21:12.365Z,27.12
2018-06-19T13:23:41.367Z,29.25
2018-06-19T13:26:11.254Z,31.03
2018-06-19T13:29:53.646Z,30.15
2018-06-19T13:32:23.355Z,30.00
2018-06-19T13:34:52.300Z,28.33
2018-06-19T13:37:21.351Z,27.15
2018-06-19T13:41:05.362Z,25.91
2018-06-19T13:43:45.626Z,26.77
2018-06-19T13:46:15.211Z,25.68
2018-06-19T13:48:44.412Z,26.18
2018-06-19T13:51:13.958Z,25.71
2018-06-19T13:53:44.200Z,26.83
2018-06-19T13:57:32.506Z,25.33
2018-06-19T14:00:06.499Z,25.78
2018-06-19T14:02:35.776Z,26.66
2018-06-19T14:05:05.496Z,26.32
2018-06-19T14:07:41.276Z,26.34
2018-06-19T14:10:25.526Z,25.78
2018-06-19T14:13:09.067Z,26.71
2018-06-19T14:15:41.742Z,26.82
2018-06-19T14:18:11.527Z,27.17
2018-06-19T14:20:40.910Z,26.84
2018-06-19T14:23:09.927Z,27.05
2018-06-19T14:25:39.233Z,28.04
2018-06-19T14:28:13.645Z,27.31
2018-06-19T14:30:43.360Z,27.88
2018-06-19T14:33:12.672Z,28.98
2018-06-19T14:35:41.924Z,26.61
2018-06-19T14:38:11.425Z,28.32
2018-06-19T14:40:40.413Z,27.38
2018-06-19T14:43:10.748Z,26.89
2018-06-19T14:45:40.040Z,26.83
2018-06-19T14:48:08.943Z,26.39
2018-06-19T14:50:37.862Z,25.78
2018-06-19T14:53:06.898Z,26.25
2018-06-19T14:55:35.855Z,27.34
2018-06-19T14:58:05.030Z,28.19
2018-06-19T15:00:34.170Z,28.35
2018-06-19T15:03:03.136Z,28.02
2018-06-19T15:05:32.220Z,27.81
2018-06-19T15:08:01.302Z,26.84
2018-06-19T15:10:30.178Z,26.28
2018-06-19T15:12:59.174Z,26.72
2018-06-19T15:15:28.209Z,26.49
2018-06-19T15:17:57.306Z,27.42
2018-06-19T15:20:26.276Z,28.68
2018-06-19T15:22:55.199Z,30.30
2018-06-19T15:25:24.336Z,30.53
2018-06-19T15:27:53.478Z,30.46
2018-06-19T15:30:22.763Z,31.19
2018-06-19T15:32:51.729Z,32.11
2018-06-19T15:35:20.794Z,33.37
2018-06-19T15:37:49.882Z,32.75
2018-06-19T15:40:19.037Z,33.49
2018-06-19T15:42:48.172Z,33.09
2018-06-19T15:45:17.357Z,33.59
2018-06-19T15:54:31.458Z,30.07
2018-06-19T15:57:00.440Z,29.05
2018-06-19T15:59:29.567Z,29.67
2018-06-19T16:01:58.882Z,28.76
2018-06-19T16:04:31.433Z,27.27
2018-06-19T16:07:00.938Z,28.14
2018-06-19T16:09:30.442Z,28.10
2018-06-19T16:11:59.704Z,27.16
2018-06-19T16:14:29.955Z,26.89
2018-06-19T16:16:59.127Z,27.84
2018-06-19T16:19:29.284Z,26.96
2018-06-19T16:22:03.254Z,27.92
2018-06-19T16:24:34.782Z,28.81
2018-06-19T16:27:04.324Z,29.56
2018-06-19T16:29:33.606Z,30.27
2018-06-19T16:32:03.023Z,31.70
2018-06-19T16:34:35.704Z,31.51
2018-06-19T16:37:08.647Z,31.73
2018-06-19T16:39:38.111Z,33.02
2018-06-19T16:42:08.468Z,33.65
2018-06-19T16:44:37.935Z,32.99
2018-06-19T16:47:08.284Z,32.73
2018-06-19T16:49:37.415Z,32.72
2018-06-19T16:52:06.871Z,32.05
2018-06-19T16:54:35.994Z,32.48
2018-06-19T16:57:05.365Z,31.65
2018-06-19T16:59:34.767Z,32.46
2018-06-19T17:02:06.081Z,33.01
2018-06-19T17:04:35.396Z,32.73
2018-06-19T17:07:05.039Z,33.52
2018-06-19T17:09:34.170Z,33.74
2018-06-19T17:12:04.518Z,32.82
2018-06-19T17:14:33.629Z,32.96
2018-06-19T17:17:03.028Z,33.92
2018-06-19T17:19:32.372Z,33.87
2018-06-19T17:22:01.644Z,33.58
2018-06-19T17:24:32.072Z,33.11
2018-06-19T17:27:02.995Z,34.05
2018-06-19T17:29:32.421Z,34.20
2018-06-19T17:32:01.641Z,35.03
2018-06-19T17:34:31.067Z,34.68
2018-06-19T17:39:53.866Z,34.62
2018-06-19T17:42:23.173Z,34.67
2018-06-19T17:44:57.180Z,35.37
2018-06-19T17:47:26.602Z,36.08
2018-06-19T17:49:56.249Z,35.44
2018-06-19T17:52:25.634Z,36.25
2018-06-19T17:54:55.089Z,36.38
2018-06-19T17:57:24.349Z,37.62
2018-06-19T17:59:53.766Z,37.76
2018-06-19T18:02:23.031Z,37.88
2018-06-19T18:04:52.247Z,37.37
2018-06-19T18:07:21.677Z,38.42
2018-06-19T18:09:50.899Z,38.54
2018-06-19T18:12:20.029Z,38.09
2018-06-19T18:14:49.551Z,38.78
2018-06-19T18:19:26.144Z,39.11
2018-06-19T18:21:55.359Z,39.16
2018-06-19T18:24:25.752Z,39.73
2018-06-19T18:26:54.899Z,39.94
2018-06-19T18:29:23.882Z,41.12
2018-06-19T18:31:53.085Z,42.17
2018-06-19T18:34:22.073Z,41.99
2018-06-19T18:36:51.222Z,42.12
2018-06-19T18:39:20.276Z,43.30
2018-06-19T18:41:49.607Z,43.09
2018-06-19T18:44:18.765Z,43.99
2018-06-19T18:46:48.125Z,43.77
2018-06-19T18:49:17.310Z,44.69
2018-06-19T18:51:46.436Z,44.40
2018-06-19T18:54:15.702Z,45.91
2018-06-19T18:56:45.893Z,45.81
2018-06-19T18:59:14.927Z,46.41
2018-06-19T19:01:44.069Z,46.34
2018-06-19T19:04:13.331Z,47.33
2018-06-19T19:06:42.489Z,46.60
2018-06-19T19:09:11.935Z,47.70
2018-06-19T19:11:41.029Z,46.95
2018-06-19T19:14:10.110Z,47.27
2018-06-19T19:16:44.084Z,48.38
2018-06-19T19:19:16.807Z,47.80
2018-06-19T19:21:45.967Z,48.85
2018-06-19T19:24:14.991Z,48.49
2018-06-19T19:26:49.219Z,49.86
2018-06-19T19:29:23.244Z,50.55
2018-06-19T19:31:52.407Z,50.59
2018-06-19T19:34:21.523Z,49.65
2018-06-19T19:36:55.576Z,50.13
2018-06-19T19:39:27.870Z,49.89
2018-06-19T19:41:56.889Z,50.69
2018-06-19T19:44:26.032Z,51.10
2018-06-19T19:49:03.814Z,52.01
2018-06-19T19:51:32.847Z,50.66
2018-06-19T19:54:01.982Z,51.37
2018-06-19T19:56:36.578Z,50.57
2018-06-19T19:59:06.833Z,50.70
2018-06-19T20:01:36.027Z,50.69
2018-06-19T20:04:04.967Z,51.00
2018-06-19T20:06:40.365Z,51.51
2018-06-19T20:09:10.243Z,50.63
2018-06-19T20:11:39.245Z,50.71
2018-06-19T20:14:12.141Z,51.97
2018-06-19T20:16:41.308Z,51.79
2018-06-19T20:19:10.360Z,52.12
2018-06-19T20:21:40.558Z,52.27
2018-06-19T20:24:09.583Z,52.29
2018-06-19T20:26:38.699Z,51.73
2018-06-19T20:29:07.902Z,51.11
2018-06-19T20:31:37.002Z,51.70
2018-06-19T20:34:06.613Z,52.92
2018-06-19T20:36:35.787Z,54.54
2018-06-19T20:39:06.842Z,55.31
2018-06-19T20:41:36.291Z,55.24
2018-06-19T20:44:05.511Z,56.64
2018-06-19T20:46:34.428Z,56.57
2018-06-19T20:49:03.499Z,57.37
2018-06-19T20:51:32.522Z,57.84
2018-06-19T20:54:01.505Z,57.89
2018-06-19T20:56:30.577Z,58.13
2018-06-19T20:58:59.736Z,58.67
2018-06-19T21:01:28.805Z,58.63
2018-06-19T21:03:58.355Z,59.01
2018-06-19T21:06:28.393Z,59.52
2018-06-19T21:08:57.285Z,58.97
2018-06-19T21:11:26.156Z,59.06
2018-06-19T21:13:55.226Z,59.60
2018-06-19T21:16:25.364Z,58.55
2018-06-19T21:18:54.400Z,58.53
2018-06-19T21:21:23.401Z,58.61
2018-06-19T21:23:52.546Z,59.04
2018-06-19T21:26:21.522Z,58.32
2018-06-19T21:28:50.469Z,59.17
2018-06-19T21:31:19.604Z,58.80
2018-06-19T21:33:48.858Z,59.13
2018-06-19T21:36:17.745Z,59.17
2018-06-19T21:38:47.125Z,58.39
2018-06-19T21:41:16.305Z,58.96
2018-06-19T21:43:45.295Z,58.96
2018-06-19T21:46:14.567Z,59.70
2018-06-19T21:48:43.715Z,60.36
2018-06-19T21:51:12.851Z,59.72
2018-06-19T21:53:43.465Z,59.78
2018-06-19T21:56:12.534Z,60.64
2018-06-19T21:58:41.636Z,60.65
2018-06-19T22:01:11.135Z,60.07
2018-06-19T22:03:40.378Z,59.37
2018-06-19T22:06:09.335Z,59.47
2018-06-19T22:08:44.505Z,60.18
2018-06-19T22:11:14.543Z,60.41
2018-06-19T22:13:44.732Z,60.02
2018-06-19T22:16:14.831Z,59.10
2018-06-19T22:18:43.919Z,59.94
2018-06-19T22:21:12.932Z,59.14
2018-06-19T22:23:41.983Z,60.39
2018-06-19T22:26:11.126Z,60.19
2018-06-19T22:28:40.297Z,60.18
2018-06-19T22:31:09.255Z,60.56
2018-06-19T22:33:38.496Z,61.19
2018-06-19T22:36:07.609Z,61.49
2018-06-19T22:38:36.648Z,62.07
2018-06-19T22:41:05.687Z,62.58
2018-06-19T22:43:35.291Z,62.47
2018-06-19T22:46:04.412Z,60.88
2018-06-19T22:48:33.296Z,60.50
2018-06-19T22:51:03.239Z,61.06
2018-06-19T22:53:32.468Z,60.90
2018-06-19T22:56:01.494Z,60.91
2018-06-19T22:58:34.051Z,61.49
2018-06-19T23:01:03.230Z,61.19
2018-06-19T23:03:32.298Z,60.86
2018-06-19T23:09:16.849Z,61.22
2018-06-19T23:15:22.343Z,61.86
2018-06-19T23:17:55.607Z,62.43
2018-06-19T23:20:25.392Z,62.03
2018-06-19T23:29:06.776Z,62.33
2018-06-19T23:32:38.775Z,62.63
2018-06-19T23:35:08.112Z,62.79
2018-06-19T23:37:37.304Z,62.32
2018-06-19T23:40:06.605Z,62.96
2018-06-19T23:42:36.023Z,63.09
2018-06-19T23:45:09.299Z,62.53
2018-06-19T23:47:44.165Z,62.15
2018-06-19T23:50:13.269Z,62.59
2018-06-19T23:52:42.396Z,62.49
2018-06-19T23:58:05.893Z,62.43
